• Join FlightAware (Why Join?)
  • Login
  • US Flag 
03:35AM EDT


 

Airport Tracker/Info


-or-


 

Live Flight TrackerFlight Track Log ✈ DAL110 ✈ 08-May-2013 ✈ KATL - KLAX

Flight Track Log - Related Links

Times and Time Zones

All times are in EDT time to prevent confusion due to time zone crossing. See the DAL110 flight status page for this flight to view local times or setup timezone preferences in your user account.

Time Position Orientation Groundspeed Altitude Reporting Facility
EDT Latitude Longitude Course Direction KTS MPH feet Rate Location/Type
08:49AM 33.6670 -84.5640 283° West 259 298 6,800  Level FlightAware
08:50AM 33.6750 -84.6070 283° West 268 308 8,900 3,360 Climbing FlightAware
08:51AM 33.6890 -84.6960 281° West 324 373 11,600 2,940 Climbing FlightAware
08:52AM 33.7060 -84.7970 281° West 364 419 14,300 3,240 Climbing FlightAware
08:54AM 33.7390 -85.0310 280° West 400 460 20,600 3,300 Climbing FlightAware
08:54AM 33.7510 -85.1190 279° West 413 475 22,600 2,940 Climbing FlightAware
08:55AM 33.7660 -85.2200 280° West 422 486 24,800 1,680 Climbing FlightAware
08:56AM 33.7770 -85.3110 278° West 425 489 25,000 2,700 Climbing FlightAware
08:56AM 33.7994 -85.4160 284° West 442 509 28,300 3,300 Climbing FlightAware ADS-B
08:58AM 33.8289 -85.5910 282° West 459 528 31,000 2,280 Climbing FlightAware ADS-B
08:58AM 33.8394 -85.6426 284° West 457 526 31,900 2,400 Climbing FlightAware ADS-B
08:59AM 33.8773 -85.7716 290° West 455 524 34,000 2,400 Climbing FlightAware ADS-B
08:59AM 33.9051 -85.8587 291° West 441 507 35,600 2,040 Climbing FlightAware ADS-B
09:00AM 33.9272 -85.9281 291° West 441 507 36,400 1,440 Climbing FlightAware ADS-B
09:01AM 33.9527 -86.0084 291° West 442 509 37,200 1,380 Climbing FlightAware ADS-B
09:01AM 33.9749 -86.0786 291° West 446 513 37,900 780 Climbing FlightAware ADS-B
09:02AM 33.9959 -86.1492 290° West 441 507 38,000  Climbing FlightAware ADS-B
09:03AM 34.0650 -86.3970 289° West 440 506 38,000  Level FlightAware
09:04AM 34.1010 -86.5210 289° West 440 506 38,000  Level FlightAware
09:05AM 34.1206 -86.5929 288° West 440 506 38,000  Level FlightAware ADS-B
09:06AM 34.1618 -86.7401 289° West 440 506 38,000  Level FlightAware ADS-B
09:06AM 34.1806 -86.8119 289° West 444 511 38,000  Level Memphis Center
09:07AM 34.2244 -86.9686 289° West 451 519 38,000  Level Memphis Center
09:08AM 34.2639 -87.1128 288° West 446 513 38,000  Level Memphis Center
09:09AM 34.2961 -87.2347 288° West 440 506 38,000  Level Memphis Center
09:10AM 34.3392 -87.3739 291° West 440 506 38,000  Level Memphis Center
09:11AM 34.3783 -87.5261 287° West 440 506 38,000  Level Memphis Center
09:12AM 34.4169 -87.6683 288° West 440 506 38,000  Level Memphis Center
09:13AM 34.4533 -87.8081 288° West 435 501 38,000  Level Memphis Center
09:14AM 34.4936 -87.9456 290° West 440 506 38,000  Level Memphis Center
09:15AM 34.5275 -88.0908 286° West 434 499 38,000  Level Memphis Center
09:16AM 34.5678 -88.2361 289° West 441 507 38,000  Level Memphis Center
09:17AM 34.6056 -88.3764 288° West 448 516 38,000  Level Memphis Center
09:18AM 34.6431 -88.5117 289° West 441 507 38,000  Level Memphis Center
09:19AM 34.6783 -88.6525 287° West 436 502 38,000  Level Memphis Center
09:20AM 34.7139 -88.7983 287° West 441 507 38,000  Level Memphis Center
09:21AM 34.7486 -88.9214 289° West 441 507 38,000  Level Memphis Center
09:22AM 34.7836 -89.0625 287° West 441 507 38,000  Level Memphis Center
09:23AM 34.8206 -89.2061 287° West 440 506 38,000  Level Memphis Center
09:24AM 34.8572 -89.3472 288° West 440 506 38,000  Level Memphis Center
09:25AM 34.8936 -89.4861 288° West 435 501 38,000  Level Memphis Center
09:26AM 34.9300 -89.6300 287° West 435 501 38,000  Level Memphis Center
09:27AM 34.9600 -89.7744 284° West 441 507 38,000  Level Memphis Center
09:28AM 35.0044 -89.9211 290° West 459 528 38,000  Level Memphis Center
09:29AM 35.0278 -90.0631 281° West 447 514 38,000  Level Memphis Center
09:30AM 35.0406 -90.2075 276° West 442 509 38,000  Level Memphis Center
09:31AM 35.0553 -90.3469 277° West 428 493 38,000  Level Memphis Center
09:32AM 35.0700 -90.4942 277° West 427 491 38,000  Level Memphis Center
09:33AM 35.0842 -90.6311 277° West 419 482 38,000  Level Memphis Center
09:34AM 35.0964 -90.7758 276° West 426 490 38,000  Level Memphis Center
09:35AM 35.1125 -90.9308 277° West 426 490 38,000  Level Memphis Center
09:36AM 35.1283 -91.0756 278° West 426 490 38,000  Level Memphis Center
09:37AM 35.1400 -91.2231 276° West 431 496 38,000  Level Memphis Center
09:38AM 35.1514 -91.3678 276° West 431 496 38,000  Level Memphis Center
09:39AM 35.1858 -91.4853 290° West 420 483 38,000  Level Memphis Center
09:40AM 35.2347 -91.6206 294° West 420 483 38,000  Level Memphis Center
09:41AM 35.2811 -91.7536 293° West 425 489 38,000  Level Memphis Center
09:42AM 35.3025 -91.8989 280° West 431 496 38,000  Level Memphis Center
09:43AM 35.3047 -92.0517 271° West 436 502 38,000  Level Memphis Center
09:44AM 35.3108 -92.1992 273° West 441 507 38,000  Level Memphis Center
09:45AM 35.3128 -92.3469 271° West 441 507 38,000  Level Memphis Center
09:46AM 35.3167 -92.4972 272° West 441 507 38,000  Level Memphis Center
09:47AM 35.3203 -92.6422 272° West 441 507 38,000  Level Memphis Center
09:48AM 35.3278 -92.7950 273° West 443 510 38,000  Level Memphis Center
09:49AM 35.3289 -92.9428 271° West 441 507 38,000  Level Memphis Center
09:56AM 35.3480 -93.8480 271° West 438 504 38,000  Level FlightAware
09:56AM 35.3490 -93.9320 271° West 438 504 38,000  Level FlightAware
09:57AM 35.3500 -94.0160 271° West 438 504 38,000  Level FlightAware
09:58AM 35.3520 -94.1010 272° West 438 504 38,000  Level FlightAware
09:58AM 35.3530 -94.2060 271° West 438 504 38,000  Level FlightAware
09:59AM 35.3540 -94.2910 271° West 438 504 38,000  Level FlightAware
10:00AM 35.3550 -94.3750 271° West 438 504 38,000  Level FlightAware
10:00AM 35.3570 -94.4600 272° West 438 504 38,000  Level FlightAware
10:01AM 35.3580 -94.5440 271° West 438 504 38,000  Level FlightAware
10:02AM 35.3610 -94.8050 271° West 436 502 38,000  Level FlightAware
10:03AM 35.3620 -94.9500 271° West 439 505 38,000  Level FlightAware
10:04AM 35.3620 -95.0350 270° West 439 505 38,000  Level FlightAware
10:04AM 35.3620 -95.1200 270° West 439 505 38,000  Level FlightAware
10:05AM 35.3620 -95.2250 270° West 439 505 38,000  Level FlightAware
10:06AM 35.3620 -95.3100 270° West 439 505 38,000  Level FlightAware
10:06AM 35.3670 -95.4730 272° West 438 504 38,000  Level FlightAware
10:07AM 35.3670 -95.5700 270° West 438 504 38,000  Level FlightAware
10:08AM 35.3670 -95.6540 270° West 438 504 38,000  Level FlightAware
10:08AM 35.3680 -95.7690 271° West 439 505 38,000  Level FlightAware
10:09AM 35.3680 -95.9030 270° West 439 505 38,000  Level FlightAware
10:10AM 35.3680 -96.0000 270° West 439 505 38,000  Level FlightAware
10:11AM 35.3680 -96.1090 270° West 439 505 38,000  Level FlightAware
10:11AM 35.3680 -96.2070 270° West 440 506 38,000  Level FlightAware
10:12AM 35.3680 -96.3020 270° West 440 506 38,000  Level FlightAware
10:13AM 35.3680 -96.4210 270° West 442 509 38,000  Level FlightAware
10:13AM 35.3670 -96.5180 269° West 443 510 38,000  Level FlightAware
10:14AM 35.3670 -96.6310 270° West 444 511 38,000  Level FlightAware
10:15AM 35.3660 -96.7300 269° West 444 511 38,000  Level FlightAware
10:16AM 35.3660 -96.8480 270° West 445 512 38,000  Level FlightAware
10:16AM 35.3650 -96.9490 269° West 445 512 38,000  Level FlightAware
10:17AM 35.3640 -97.0660 269° West 445 512 38,000  Level FlightAware
10:18AM 35.3630 -97.1970 270° West 444 511 38,000  Level FlightAware
10:19AM 35.3620 -97.2930 269° West 444 511 38,000  Level FlightAware
10:19AM 35.3610 -97.4200 269° West 443 510 38,000  Level FlightAware
10:20AM 35.3590 -97.5500 269° West 443 510 38,000  Level FlightAware
10:21AM 35.3580 -97.6650 269° West 444 511 38,000  Level FlightAware
10:22AM 35.3370 -97.7840 258° West 444 511 38,000  Level FlightAware
10:23AM 35.3200 -97.8830 258° West 443 510 38,000  Level FlightAware
10:23AM 35.3010 -97.9940 258° West 444 511 38,000  Level FlightAware
10:24AM 35.2860 -98.0800 258° West 444 511 38,000  Level FlightAware
10:25AM 35.2720 -98.1640 258° West 444 511 38,000  Level FlightAware
10:25AM 35.2570 -98.2480 258° West 444 511 38,000  Level FlightAware
10:26AM 35.2430 -98.3310 258° West 444 511 38,000  Level FlightAware
10:27AM 35.2250 -98.4360 258° West 444 511 38,000  Level FlightAware
10:27AM 35.2100 -98.5200 258° West 444 511 38,000  Level FlightAware
10:28AM 35.1960 -98.6030 258° West 444 511 38,000  Level FlightAware
10:29AM 35.1810 -98.6870 258° West 444 511 38,000  Level FlightAware
10:30AM 35.1630 -98.7910 258° West 444 511 38,000  Level FlightAware
10:30AM 35.1480 -98.8750 258° West 444 511 38,000  Level FlightAware
10:31AM 35.1340 -98.9580 258° West 444 511 38,000  Level FlightAware
10:32AM 35.1190 -99.0420 258° West 444 511 38,000  Level FlightAware
10:32AM 35.1050 -99.1250 258° West 444 511 38,000  Level FlightAware
10:33AM 35.0870 -99.2300 258° West 444 511 38,000  Level FlightAware
10:34AM 35.2172 -99.5228 258° West 444 511 38,000  Level Fort Worth Center
10:34AM 35.2203 -99.6308 272° West 442 509 38,000  Level Albuquerque Center
10:35AM 35.2236 -99.7822 272° West 442 509 38,000  Level Albuquerque Center
10:36AM 35.2256 -99.9325 271° West 441 507 38,000  Level Albuquerque Center
10:37AM 35.2264 -100.0825 270° West 440 506 38,000  Level Albuquerque Center
10:38AM 35.2269 -100.2306 270° West 438 504 38,000  Level Albuquerque Center
10:40AM 35.2300 -100.4108 271° West 438 504 38,000  Level Albuquerque Center
10:41AM 35.2322 -100.5594 271° West 436 502 38,000  Level Albuquerque Center
10:42AM 35.2331 -100.7053 270° West 439 505 38,000  Level Albuquerque Center
10:43AM 35.2339 -100.8550 270° West 441 507 38,000  Level Albuquerque Center
10:44AM 35.2347 -101.0036 270° West 440 506 38,000  Level Albuquerque Center
10:45AM 35.2347 -101.1794 270° West 434 499 38,000  Level Albuquerque Center
10:46AM 35.2356 -101.3233 270° West 427 491 38,000  Level Albuquerque Center
10:47AM 35.2375 -101.4753 271° West 425 489 38,000  Level Albuquerque Center
10:48AM 35.2378 -101.6200 270° West 424 488 38,000  Level Albuquerque Center
10:49AM 35.2347 -101.7531 268° West 426 490 38,000  Level Albuquerque Center
10:50AM 35.2294 -101.9253 268° West 429 494 38,000  Level Albuquerque Center
10:52AM 35.2222 -102.2053 268° West 426 490 38,000  Level Albuquerque Center
10:53AM 35.2181 -102.3511 268° West 429 494 38,000  Level Albuquerque Center
10:54AM 35.2133 -102.5278 268° West 433 498 38,000  Level Albuquerque Center
10:55AM 35.2086 -102.6744 268° West 434 499 38,000  Level Albuquerque Center
10:56AM 35.2042 -102.8211 268° West 433 498 38,000  Level Albuquerque Center
10:57AM 35.1992 -102.9831 268° West 432 497 38,000  Level Albuquerque Center
10:58AM 35.1936 -103.1314 267° West 433 498 38,000  Level Albuquerque Center
10:59AM 35.1894 -103.2789 268° West 432 497 38,000  Level Albuquerque Center
11:00AM 35.1833 -103.4247 267° West 427 491 38,000  Level Albuquerque Center
11:01AM 35.1778 -103.5706 267° West 426 490 38,000  Level Albuquerque Center
11:02AM 35.1722 -103.7150 267° West 424 488 38,000  Level Albuquerque Center
11:03AM 35.1661 -103.8586 267° West 421 484 38,000  Level Albuquerque Center
11:04AM 35.1600 -104.0072 267° West 424 488 38,000  Level Albuquerque Center
11:05AM 35.1550 -104.1503 268° West 424 488 38,000  Level Albuquerque Center
11:06AM 35.1464 -104.3200 266° West 421 484 38,000  Level Albuquerque Center
11:07AM 35.1406 -104.4622 267° West 419 482 38,000  Level Albuquerque Center
11:08AM 35.1331 -104.6100 266° West 413 475 38,000  Level Albuquerque Center
11:10AM 35.1250 -104.7531 266° West 417 480 38,100 660 Climbing Albuquerque Center
11:11AM 35.1183 -104.8961 267° West 418 481 39,400 900 Climbing Albuquerque Center
11:12AM 35.1119 -105.0408 267° West 422 486 40,000 60 Climbing Albuquerque Center
11:17AM 35.0840 -105.8580 267° West 426 490 40,000  Level FlightAware
11:18AM 35.0790 -105.9920 267° West 430 495 40,000  Level FlightAware
11:19AM 35.0740 -106.0960 267° West 435 501 40,000  Level FlightAware
11:20AM 35.0700 -106.1970 267° West 432 497 40,000  Level FlightAware
11:20AM 35.0670 -106.2890 268° West 430 495 40,000  Level FlightAware
11:21AM 35.0620 -106.4040 267° West 425 489 40,000  Level FlightAware
11:22AM 35.0580 -106.5010 267° West 427 491 40,000  Level FlightAware
11:22AM 35.0540 -106.5970 267° West 429 494 40,000  Level FlightAware
11:23AM 35.0490 -106.7040 267° West 429 494 40,000  Level FlightAware
11:24AM 35.0450 -106.8000 267° West 424 488 40,000  Level FlightAware
11:24AM 35.0410 -106.9110 268° West 421 484 40,000  Level FlightAware
11:25AM 35.0390 -107.0030 269° West 421 484 40,000  Level FlightAware
11:26AM 35.0370 -107.1090 269° West 419 482 40,000  Level FlightAware
11:27AM 35.0340 -107.2020 268° West 419 482 40,000  Level FlightAware
11:27AM 35.0310 -107.2970 268° West 419 482 40,000  Level FlightAware
11:28AM 35.0280 -107.4030 268° West 415 478 40,000  Level FlightAware
11:29AM 35.0260 -107.4980 269° West 413 475 40,000  Level FlightAware
11:29AM 35.0230 -107.5900 268° West 421 484 40,000  Level FlightAware
11:30AM 35.0200 -107.6970 268° West 420 483 40,000  Level FlightAware
11:31AM 35.0170 -107.7900 268° West 421 484 40,000  Level FlightAware
11:31AM 35.0140 -107.8850 268° West 425 489 40,000  Level FlightAware
11:32AM 35.0100 -107.9940 267° West 425 489 40,000  Level FlightAware
11:33AM 35.0070 -108.0920 268° West 424 488 40,000  Level FlightAware
11:34AM 35.0030 -108.1970 267° West 425 489 40,000  Level FlightAware
11:34AM 35.0000 -108.2920 268° West 426 490 40,000  Level FlightAware
11:35AM 34.9960 -108.3990 267° West 427 491 40,000  Level FlightAware
11:36AM 34.9920 -108.4980 267° West 428 493 40,000  Level FlightAware
11:36AM 34.9890 -108.5860 268° West 428 493 40,000  Level FlightAware
11:37AM 34.9850 -108.6840 267° West 428 493 40,000  Level FlightAware
11:38AM 34.9810 -108.7660 267° West 428 493 40,000  Level FlightAware
11:38AM 34.9770 -108.8900 268° West 429 494 40,000  Level FlightAware
11:39AM 34.9730 -108.9950 267° West 430 495 40,000  Level FlightAware
11:40AM 34.9680 -109.1060 267° West 431 496 40,000  Level FlightAware
11:41AM 34.9630 -109.2080 267° West 430 495 40,000  Level FlightAware
11:41AM 34.9560 -109.3040 265° West 429 494 40,000  Level FlightAware
11:42AM 34.9480 -109.4150 265° West 429 494 40,000  Level FlightAware
11:43AM 34.9420 -109.5110 266° West 428 493 40,000  Level FlightAware
11:43AM 34.9350 -109.6070 265° West 428 493 40,000  Level FlightAware
11:44AM 34.9280 -109.7110 265° West 428 493 40,000  Level FlightAware
11:45AM 34.9210 -109.8090 265° West 426 490 40,000  Level FlightAware
11:45AM 34.9140 -109.9180 266° West 427 491 40,000  Level FlightAware
11:46AM 34.9070 -110.0130 265° West 426 490 40,000  Level FlightAware
11:47AM 34.8990 -110.1180 265° West 426 490 40,000  Level FlightAware
11:48AM 34.8920 -110.2110 265° West 427 491 40,000  Level FlightAware
11:48AM 34.8850 -110.3120 265° West 427 491 40,000  Level FlightAware
11:49AM 34.8760 -110.4210 264° West 429 494 40,000  Level FlightAware
11:50AM 34.8690 -110.5160 265° West 432 497 40,000  Level FlightAware
11:50AM 34.8620 -110.6140 265° West 433 498 40,000  Level FlightAware
11:51AM 34.8530 -110.7200 264° West 434 499 40,000  Level FlightAware
11:52AM 34.8480 -110.7930 265° West 434 499 40,000  Level FlightAware
11:52AM 34.8400 -110.8900 264° West 433 498 40,000  Level FlightAware
11:53AM 34.8320 -110.9870 264° West 430 495 40,000  Level FlightAware
11:54AM 34.8230 -111.0970 264° West 429 494 40,000  Level FlightAware
11:54AM 34.8150 -111.1940 264° West 430 495 40,000  Level FlightAware
11:55AM 34.8070 -111.2990 265° West 430 495 40,000  Level FlightAware
11:56AM 34.7990 -111.3950 264° West 430 495 40,000  Level FlightAware
11:56AM 34.7910 -111.4910 264° West 431 496 40,000  Level FlightAware
11:57AM 34.7810 -111.6030 264° West 432 497 40,000  Level FlightAware
11:58AM 34.7730 -111.7000 264° West 431 496 40,000  Level FlightAware
11:58AM 34.7640 -111.7950 263° West 428 493 40,000  Level FlightAware
11:59AM 34.7550 -111.8990 264° West 426 490 40,000  Level FlightAware
12:00PM 34.7430 -111.9920 261° West 425 489 40,000  Level FlightAware
12:01PM 34.7260 -112.1010 259° West 425 489 40,000  Level FlightAware
12:01PM 34.7130 -112.1920 260° West 425 489 40,000  Level FlightAware
12:02PM 34.6970 -112.2990 260° West 426 490 40,000  Level FlightAware
12:03PM 34.6840 -112.3920 260° West 425 489 40,000  Level FlightAware
12:03PM 34.6700 -112.4870 260° West 424 488 40,000  Level FlightAware
12:04PM 34.6530 -112.5940 259° West 423 487 40,000  Level FlightAware
12:05PM 34.6390 -112.6870 260° West 424 488 40,000  Level FlightAware
12:06PM 34.6230 -112.7890 259° West 426 490 40,000  Level FlightAware
12:06PM 34.6080 -112.8830 259° West 428 493 40,000  Level FlightAware
12:07PM 34.5910 -112.9890 259° West 428 493 40,000  Level FlightAware
12:08PM 34.5750 -113.0870 259° West 430 495 40,000  Level FlightAware
12:08PM 34.5600 -113.1820 259° West 430 495 40,000  Level FlightAware
12:09PM 34.5430 -113.2870 259° West 431 496 40,000  Level FlightAware
12:10PM 34.5280 -113.3800 259° West 431 496 40,000  Level FlightAware
12:10PM 34.5120 -113.4740 258° West 431 496 40,000  Level FlightAware
12:11PM 34.4940 -113.5840 259° West 432 497 40,000  Level FlightAware
12:12PM 34.4780 -113.6790 258° West 432 497 40,000  Level FlightAware
12:12PM 34.4630 -113.7740 259° West 432 497 40,000  Level FlightAware
12:13PM 34.4450 -113.8780 258° West 433 498 40,000  Level FlightAware
12:14PM 34.4290 -113.9720 258° West 434 499 40,000  Level FlightAware
12:15PM 34.4110 -114.0820 259° West 435 501 40,000  Level FlightAware
12:15PM 34.3940 -114.1790 258° West 435 501 40,000  Level FlightAware
12:16PM 34.3780 -114.2730 258° West 434 499 40,000  Level FlightAware
12:17PM 34.3650 -114.3520 259° West 435 501 40,000  Level FlightAware
12:17PM 34.3450 -114.4660 258° West 434 499 40,000  Level FlightAware
12:18PM 34.3250 -114.5810 258° West 434 499 40,000  Level FlightAware
12:19PM 34.3060 -114.6910 258° West 434 499 40,000  Level FlightAware
12:20PM 34.2860 -114.8060 258° West 435 501 40,000  Level FlightAware
12:20PM 34.2670 -114.9110 258° West 434 499 40,000  Level FlightAware
12:21PM 34.2510 -115.0050 258° West 434 499 40,000  Level FlightAware
12:22PM 34.2320 -115.1080 257° West 434 499 40,000 -540 Level FlightAware
12:23PM 34.2150 -115.2080 258° West 433 498 39,300 -1,080 Descending FlightAware
12:23PM 34.1980 -115.3010 258° West 428 493 38,600 -1,320 Descending FlightAware
12:24PM 34.1790 -115.4050 258° West 434 499 37,500 -1,380 Descending FlightAware
12:25PM 34.1620 -115.4980 258° West 435 501 36,700 -1,080 Descending FlightAware
12:25PM 34.1420 -115.6090 258° West 428 493 36,000 -540 Descending FlightAware
12:26PM 34.1250 -115.7010 257° West 429 494 36,000  Level FlightAware
12:27PM 34.1070 -115.7960 257° West 430 495 36,000  Level FlightAware
12:27PM 34.0930 -115.9010 261° West 431 496 36,000  Level FlightAware
12:28PM 34.0790 -115.9950 260° West 432 497 36,000 -1,020 Level FlightAware
12:29PM 34.0630 -116.1040 260° West 426 490 34,600 -2,520 Descending FlightAware
12:30PM 34.0490 -116.1960 260° West 430 495 32,500 -3,120 Descending FlightAware
12:30PM 34.0340 -116.2930 259° West 437 503 30,500 -1,800 Descending FlightAware
12:31PM 34.0180 -116.3990 260° West 436 502 30,000 -1,500 Descending FlightAware
12:32PM 34.0050 -116.4920 260° West 431 496 28,400 -2,940 Descending FlightAware
12:32PM 33.9960 -116.6000 264° West 426 490 25,900 -3,000 Descending FlightAware
12:33PM 33.9890 -116.6950 265° West 418 481 24,200 -2,880 Descending FlightAware
12:34PM 33.9810 -116.7880 264° West 415 478 22,100 -2,880 Descending FlightAware
12:34PM 33.9730 -116.8870 264° West 407 468 20,200 -2,700 Descending FlightAware
12:35PM 33.9660 -116.9770 265° West 391 450 18,300 -2,100 Descending FlightAware
12:36PM 33.9580 -117.0630 264° West 388 447 17,400 -1,320 Descending FlightAware
12:37PM 33.9500 -117.1610 264° West 384 442 16,500 -1,440 Descending FlightAware
12:37PM 33.9430 -117.2430 264° West 375 432 15,400 -1,980 Descending FlightAware
12:38PM 33.9360 -117.3260 264° West 370 426 13,900 -2,100 Descending FlightAware
12:39PM 33.9450 -117.4150 277° West 365 420 12,500 -1,500 Descending FlightAware
12:39PM 33.9700 -117.4880 292° West 341 392 11,800 -900 Descending FlightAware
12:40PM 33.9870 -117.5690 284° West 313 360 11,300 -720 Descending FlightAware
12:41PM 33.9970 -117.6320 281° West 295 339 10,800 -1,020 Descending FlightAware
12:41PM 34.0040 -117.7050 277° West 284 327 9,900 -1,200 Descending FlightAware
12:42PM 34.0010 -117.7440 265° West 280 322 9,400 -1,200 Descending FlightAware
12:42PM 33.9960 -117.7910 263° West 276 318 8,800 -1,140 Descending FlightAware
12:43PM 33.9930 -117.8280 264° West 276 318 8,400 -1,020 Descending FlightAware
12:43PM 33.9880 -117.8730 262° West 278 320 7,900 -660 Descending FlightAware
12:44PM 33.9840 -117.9140 263° West 266 306 7,800 -120 Descending FlightAware
12:44PM 33.9800 -117.9570 264° West 267 307 7,800  Level FlightAware
12:44PM 33.9780 -117.9780 263° West 273 314 7,800  Level FlightAware
12:45PM 33.9740 -118.0170 263° West 273 314 7,800  Level FlightAware
12:45PM 33.9700 -118.0630 264° West 270 311 7,800  Level FlightAware
12:46PM 33.9650 -118.1080 262° West 270 311 7,800 -780 Level FlightAware
12:46PM 33.9620 -118.1430 264° West 269 310 7,100 -2,400 Descending FlightAware
12:47PM 33.9590 -118.1670 261° West 263 303 6,200 -3,360 Descending FlightAware
12:47PM 33.9550 -118.2090 263° West 242 278 4,600 -2,880 Descending FlightAware
12:47PM 33.9520 -118.2350 262° West 226 260 3,600 -2,280 Descending FlightAware
12:48PM 33.9470 -118.2870 263° West 175 201 2,000 -1,560 Descending FlightAware
12:49PM 33.9460 -118.2940 260° West 176 203 1,800 -780 Descending FlightAware
12:49PM 33.9440 -118.3200 265° West 149 171 1,300 -780 Descending FlightAware
12:50PM 33.9400 -118.3570 263° West 138 159 700 -660 Descending FlightAware